createdAt,value
2023-02-06T00:04:40.437Z,1.94
2023-02-06T00:09:49.385Z,1.94
2023-02-06T00:14:58.382Z,1.81
2023-02-06T00:20:07.262Z,1.75
2023-02-06T00:25:16.269Z,1.81
2023-02-06T00:30:25.225Z,1.81
2023-02-06T00:35:34.360Z,1.62
2023-02-06T00:40:43.006Z,1.56
2023-02-06T00:45:51.896Z,1.44
2023-02-06T00:51:00.775Z,1.25
2023-02-06T00:56:09.918Z,1
2023-02-06T01:01:18.953Z,0.75
2023-02-06T01:06:27.710Z,0.81
2023-02-06T01:11:37.042Z,0.81
2023-02-06T01:16:46.164Z,0.88
2023-02-06T01:21:55.115Z,0.88
2023-02-06T01:27:04.290Z,0.81
2023-02-06T01:32:13.308Z,0.69
2023-02-06T01:37:22.427Z,0.56
2023-02-06T01:42:31.220Z,0.44
2023-02-06T01:47:40.479Z,0.31
2023-02-06T01:52:49.392Z,0.31
2023-02-06T01:57:58.423Z,0.31
2023-02-06T02:03:07.683Z,0.37
2023-02-06T02:13:14.522Z,0.31
2023-02-06T02:18:23.653Z,0.13
2023-02-06T02:23:32.450Z,-0.06
2023-02-06T02:28:41.368Z,-0.25
2023-02-06T02:33:50.471Z,-0.37
2023-02-06T02:38:59.687Z,-0.44
2023-02-06T02:44:08.734Z,-0.5
2023-02-06T02:49:17.876Z,-0.19
2023-02-06T02:54:26.640Z,-0.25
2023-02-06T02:59:35.482Z,-0.44
2023-02-06T03:04:44.677Z,-0.56
2023-02-06T03:09:53.682Z,-0.81
2023-02-06T03:15:02.635Z,-1
2023-02-06T03:20:11.650Z,-1
2023-02-06T03:25:20.601Z,-1.19
2023-02-06T03:30:29.467Z,-1.06
2023-02-06T03:35:38.432Z,-1
2023-02-06T03:40:47.676Z,-0.88
2023-02-06T03:45:56.898Z,-0.56
2023-02-06T03:51:06.218Z,-0.5
2023-02-06T03:56:15.358Z,-0.37
2023-02-06T04:01:24.383Z,-0.31
2023-02-06T04:06:33.288Z,-0.37
2023-02-06T04:11:42.328Z,-0.56
2023-02-06T04:16:54.064Z,-0.75
2023-02-06T04:22:03.372Z,-0.75
2023-02-06T04:27:12.324Z,-0.94
2023-02-06T04:32:21.335Z,-1.06
2023-02-06T04:37:30.233Z,-1.12
2023-02-06T04:42:39.477Z,-1.12
2023-02-06T04:47:48.410Z,-0.94
2023-02-06T04:52:57.477Z,-0.81
2023-02-06T04:58:06.367Z,-0.75
2023-02-06T05:03:15.365Z,-0.75
2023-02-06T05:08:24.301Z,-0.81
2023-02-06T05:13:33.131Z,-1.06
2023-02-06T05:18:42.092Z,-1.12
2023-02-06T05:23:51.207Z,-1.06
2023-02-06T05:29:00.169Z,-1.06
2023-02-06T05:34:09.218Z,-1.12
2023-02-06T05:39:18.214Z,-1.19
2023-02-06T05:44:27.243Z,-1.12
2023-02-06T05:49:36.309Z,-1
2023-02-06T05:54:45.270Z,-0.81
2023-02-06T05:59:54.211Z,-0.69
2023-02-06T06:05:03.184Z,-0.44
2023-02-06T06:15:11.183Z,-0.19
2023-02-06T06:20:20.200Z,-0.13
2023-02-06T06:25:29.189Z,-0.06
2023-02-06T06:30:38.456Z,-0.06
2023-02-06T06:35:47.359Z,-0.06
2023-02-06T06:40:56.279Z,-0.06
2023-02-06T06:46:05.469Z,0
2023-02-06T06:51:14.291Z,0
2023-02-06T06:56:23.320Z,0.06
2023-02-06T07:01:32.461Z,0.06
2023-02-06T07:06:41.399Z,0.13
2023-02-06T07:11:50.660Z,0.25
2023-02-06T07:16:59.767Z,0.31
2023-02-06T07:22:08.830Z,0.5
2023-02-06T07:37:14.952Z,0.81
2023-02-06T07:42:23.866Z,0.88
2023-02-06T07:47:32.872Z,0.88
2023-02-06T08:07:40.130Z,1.06
2023-02-06T08:12:49.183Z,1.25
2023-02-06T08:17:58.176Z,1.31
2023-02-06T08:23:06.970Z,1.37
2023-02-06T08:28:15.902Z,1.37
2023-02-06T08:33:25.070Z,1.44
2023-02-06T08:38:34.435Z,1.56
2023-02-06T08:43:43.424Z,1.69
2023-02-06T08:48:52.340Z,1.81
2023-02-06T08:54:01.796Z,1.94
2023-02-06T08:59:10.824Z,2
2023-02-06T09:04:19.844Z,2.06
2023-02-06T09:09:28.958Z,2.25
2023-02-06T09:14:38.017Z,2.37
2023-02-06T09:19:47.111Z,2.44
2023-02-06T09:24:56.320Z,2.56
2023-02-06T09:30:05.287Z,2.62
2023-02-06T09:35:14.448Z,2.69
2023-02-06T09:40:23.396Z,2.62
2023-02-06T09:45:32.150Z,2.56
2023-02-06T09:50:41.233Z,2.81
2023-02-06T09:55:50.559Z,3
2023-02-06T10:00:59.830Z,3.19
2023-02-06T10:06:08.730Z,3.25
2023-02-06T10:11:17.851Z,3.37
2023-02-06T10:16:26.994Z,3.75
2023-02-06T10:21:36.127Z,3.75
2023-02-06T10:26:45.077Z,3.69
2023-02-06T10:31:53.903Z,3.62
2023-02-06T10:37:02.880Z,3.69
2023-02-06T10:42:11.999Z,3.81
2023-02-06T10:47:21.025Z,3.87
2023-02-06T10:52:30.143Z,4
2023-02-06T10:57:39.325Z,4.19
2023-02-06T11:12:47.156Z,4.44
2023-02-06T11:17:55.807Z,4.5
2023-02-06T11:23:04.848Z,4.37
2023-02-06T11:28:13.743Z,4.19
2023-02-06T11:33:22.634Z,4.12
2023-02-06T11:38:32.012Z,4.56
2023-02-06T11:43:40.921Z,4.81
2023-02-06T11:48:49.707Z,4.69
2023-02-06T11:53:58.664Z,4.56
2023-02-06T11:59:07.608Z,4.75
2023-02-06T12:04:16.668Z,4.94
2023-02-06T12:09:25.839Z,5.31
2023-02-06T12:14:35.196Z,5.44
2023-02-06T12:19:44.230Z,5.06
2023-02-06T12:24:53.270Z,5.19
2023-02-06T12:30:02.248Z,5.62
2023-02-06T12:35:11.273Z,5.75
2023-02-06T12:40:20.907Z,6.25
2023-02-06T12:45:29.831Z,6.19
2023-02-06T12:50:39.049Z,6.12
2023-02-06T12:55:47.867Z,6.19
2023-02-06T13:00:56.956Z,6.12
2023-02-06T13:06:05.554Z,5.44
2023-02-06T13:11:14.028Z,5.31
2023-02-06T13:16:24.344Z,7.12
2023-02-06T13:21:33.639Z,6.56
2023-02-06T13:26:42.718Z,6.56
2023-02-06T13:31:52.059Z,6.56
2023-02-06T13:37:00.950Z,6.56
2023-02-06T13:42:09.997Z,6.87
2023-02-06T13:47:18.713Z,6.69
2023-02-06T13:52:27.671Z,6.87
2023-02-06T13:57:36.800Z,7.87
2023-02-06T14:02:45.975Z,8.75
2023-02-06T14:07:54.340Z,7.31
2023-02-06T14:13:03.215Z,7.06
2023-02-06T14:18:12.201Z,8.25
2023-02-06T14:23:21.133Z,6.87
2023-02-06T14:28:30.135Z,6.94
2023-02-06T14:33:39.231Z,6.87
2023-02-06T14:38:48.281Z,7.12
2023-02-06T14:43:56.939Z,6.75
2023-02-06T14:49:05.693Z,6.12
2023-02-06T14:54:14.225Z,5.87
2023-02-06T14:59:23.483Z,5.75
2023-02-06T15:04:32.150Z,5.31
2023-02-06T15:09:40.593Z,4.81
2023-02-06T15:14:49.583Z,4.75
2023-02-06T15:19:58.698Z,4.44
2023-02-06T15:30:05.491Z,4.19
2023-02-06T15:35:14.558Z,4
2023-02-06T15:40:23.535Z,3.75
2023-02-06T15:45:32.513Z,3.56
2023-02-06T15:50:41.464Z,3.31
2023-02-06T15:55:50.356Z,3.12
2023-02-06T16:00:59.338Z,2.94
2023-02-06T16:06:08.261Z,2.81
2023-02-06T16:11:17.297Z,2.75
2023-02-06T16:16:26.418Z,2.69
2023-02-06T16:21:35.710Z,2.75
2023-02-06T16:26:44.607Z,2.75
2023-02-06T16:31:53.752Z,2.62
2023-02-06T16:37:02.923Z,2.62
2023-02-06T16:42:11.901Z,2.75
2023-02-06T16:47:20.885Z,2.87
2023-02-06T16:52:29.906Z,2.87
2023-02-06T16:57:38.878Z,3
2023-02-06T17:02:47.924Z,3.12
2023-02-06T17:07:56.971Z,3.19
2023-02-06T17:13:05.906Z,3.19
2023-02-06T17:18:14.819Z,3.19
2023-02-06T17:23:23.781Z,2.87
2023-02-06T17:28:32.511Z,2.56
2023-02-06T17:33:41.630Z,2.25
2023-02-06T17:38:50.523Z,2.06
2023-02-06T17:43:59.525Z,1.75
2023-02-06T17:49:08.596Z,1.56
2023-02-06T17:54:17.713Z,1.37
2023-02-06T17:59:26.596Z,1.19
2023-02-06T18:04:35.847Z,1
2023-02-06T18:09:44.718Z,0.88
2023-02-06T18:14:53.679Z,0.88
2023-02-06T18:20:02.596Z,0.69
2023-02-06T18:25:11.739Z,0.5
2023-02-06T18:30:20.531Z,0.31
2023-02-06T18:35:29.464Z,0.25
2023-02-06T18:40:38.680Z,0.06
2023-02-06T18:45:47.181Z,-0.06
2023-02-06T18:50:58.157Z,-0.19
2023-02-06T18:56:04.982Z,-0.25
2023-02-06T19:01:13.959Z,-0.31
2023-02-06T19:06:22.894Z,-0.31
2023-02-06T19:11:31.958Z,-0.06
2023-02-06T19:16:40.943Z,0.25
2023-02-06T19:26:48.163Z,0.31
2023-02-06T19:31:57.284Z,0.44
2023-02-06T19:37:06.342Z,0.44
2023-02-06T19:47:24.201Z,0.37
2023-02-06T19:52:33.114Z,0.19
2023-02-06T19:57:42.092Z,0.75
2023-02-06T20:02:51.210Z,0.62
2023-02-06T20:18:07.292Z,0.31
2023-02-06T20:28:25.344Z,0.13
2023-02-06T20:33:34.447Z,0.37
2023-02-06T20:38:43.308Z,0.19
2023-02-06T20:43:52.286Z,0
2023-02-06T20:49:01.564Z,0.19
2023-02-06T20:54:10.458Z,0
2023-02-06T20:59:19.642Z,-0.06
2023-02-06T21:04:29.167Z,-0.06
2023-02-06T21:09:37.605Z,-0.13
2023-02-06T21:14:46.621Z,-0.13
2023-02-06T21:19:55.837Z,-0.13
2023-02-06T21:25:04.726Z,-0.25
2023-02-06T21:30:13.814Z,-0.19
2023-02-06T21:35:22.821Z,-0.5
2023-02-06T21:40:31.711Z,-0.31
2023-02-06T21:45:40.710Z,-0.19
2023-02-06T21:50:49.771Z,0.06
2023-02-06T21:55:58.699Z,0.06
2023-02-06T22:01:08.986Z,-0.06
2023-02-06T22:06:16.791Z,0.13
2023-02-06T22:11:25.963Z,0.06
2023-02-06T22:16:34.999Z,-0.06
2023-02-06T22:21:43.960Z,0.06
2023-02-06T22:26:52.995Z,-0.13
2023-02-06T22:32:02.012Z,-0.5
2023-02-06T22:37:11.004Z,-0.5
2023-02-06T22:42:19.969Z,-0.62
2023-02-06T22:47:28.953Z,-0.56
2023-02-06T22:52:38.161Z,-0.75
2023-02-06T22:57:47.071Z,-0.69
2023-02-06T23:02:56.063Z,-0.5
2023-02-06T23:13:14.167Z,-0.44
2023-02-06T23:18:23.210Z,-0.56
2023-02-06T23:23:32.204Z,-0.44
2023-02-06T23:33:50.681Z,0.25
2023-02-06T23:43:58.185Z,0.19
2023-02-06T23:49:07.138Z,0
2023-02-06T23:54:16.099Z,-0.44
2023-02-06T23:59:25.011Z,-0.62
